sensor_id;sensor_type;location;lat;lon;timestamp;temperature;humidity
60293;DHT22;52402;52.670;6.750;2023-04-21T00:00:15;9.20;99.90
60293;DHT22;52402;52.670;6.750;2023-04-21T00:02:50;9.10;99.90
60293;DHT22;52402;52.670;6.750;2023-04-21T00:05:24;9.10;99.90
60293;DHT22;52402;52.670;6.750;2023-04-21T00:07:50;9.10;99.90
60293;DHT22;52402;52.670;6.750;2023-04-21T00:10:18;9.10;99.90
60293;DHT22;52402;52.670;6.750;2023-04-21T00:12:48;9.10;99.90
60293;DHT22;52402;52.670;6.750;2023-04-21T00:15:21;9.10;99.90
60293;DHT22;52402;52.670;6.750;2023-04-21T00:17:54;9.10;99.90
60293;DHT22;52402;52.670;6.750;2023-04-21T00:20:29;9.00;99.90
60293;DHT22;52402;52.670;6.750;2023-04-21T00:23:00;9.00;99.90
60293;DHT22;52402;52.670;6.750;2023-04-21T00:25:30;8.90;99.90
60293;DHT22;52402;52.670;6.750;2023-04-21T00:28:06;8.90;99.90
60293;DHT22;52402;52.670;6.750;2023-04-21T00:30:36;8.90;99.90
60293;DHT22;52402;52.670;6.750;2023-04-21T00:33:06;8.80;99.90
60293;DHT22;52402;52.670;6.750;2023-04-21T00:35:38;8.80;99.90
60293;DHT22;52402;52.670;6.750;2023-04-21T00:38:11;8.80;99.90
60293;DHT22;52402;52.670;6.750;2023-04-21T00:40:44;8.70;99.90
60293;DHT22;52402;52.670;6.750;2023-04-21T00:43:14;8.70;99.90
60293;DHT22;52402;52.670;6.750;2023-04-21T00:45:45;8.70;99.90
60293;DHT22;52402;52.670;6.750;2023-04-21T00:48:20;8.70;99.90
60293;DHT22;52402;52.670;6.750;2023-04-21T00:50:48;8.60;99.90
60293;DHT22;52402;52.670;6.750;2023-04-21T00:53:22;8.60;99.90
60293;DHT22;52402;52.670;6.750;2023-04-21T00:55:57;8.60;99.90
60293;DHT22;52402;52.670;6.750;2023-04-21T00:58:26;8.50;99.90
60293;DHT22;52402;52.670;6.750;2023-04-21T01:00:58;8.50;99.90
60293;DHT22;52402;52.670;6.750;2023-04-21T01:03:34;8.50;99.90
60293;DHT22;52402;52.670;6.750;2023-04-21T01:06:07;8.50;99.90
60293;DHT22;52402;52.670;6.750;2023-04-21T01:08:36;8.50;99.90
60293;DHT22;52402;52.670;6.750;2023-04-21T01:11:12;8.50;99.90
60293;DHT22;52402;52.670;6.750;2023-04-21T01:13:45;8.40;99.90
60293;DHT22;52402;52.670;6.750;2023-04-21T01:16:21;8.40;99.90
60293;DHT22;52402;52.670;6.750;2023-04-21T01:18:52;8.40;99.90
60293;DHT22;52402;52.670;6.750;2023-04-21T01:21:24;8.40;99.90
60293;DHT22;52402;52.670;6.750;2023-04-21T01:23:52;8.40;99.90
60293;DHT22;52402;52.670;6.750;2023-04-21T01:26:22;8.40;99.90
60293;DHT22;52402;52.670;6.750;2023-04-21T01:28:54;8.40;99.90
60293;DHT22;52402;52.670;6.750;2023-04-21T01:31:20;8.50;99.90
60293;DHT22;52402;52.670;6.750;2023-04-21T01:33:51;8.40;99.90
60293;DHT22;52402;52.670;6.750;2023-04-21T01:36:19;8.40;99.90
60293;DHT22;52402;52.670;6.750;2023-04-21T01:38:47;8.50;99.90
60293;DHT22;52402;52.670;6.750;2023-04-21T01:41:15;8.50;99.90
60293;DHT22;52402;52.670;6.750;2023-04-21T01:43:45;8.40;99.90
60293;DHT22;52402;52.670;6.750;2023-04-21T01:46:13;8.50;99.90
60293;DHT22;52402;52.670;6.750;2023-04-21T01:48:43;8.50;99.90
60293;DHT22;52402;52.670;6.750;2023-04-21T01:51:14;8.50;99.90
60293;DHT22;52402;52.670;6.750;2023-04-21T01:53:50;8.50;99.90
60293;DHT22;52402;52.670;6.750;2023-04-21T01:56:15;8.50;99.90
60293;DHT22;52402;52.670;6.750;2023-04-21T01:58:43;8.50;99.90
60293;DHT22;52402;52.670;6.750;2023-04-21T02:01:13;8.50;99.90
60293;DHT22;52402;52.670;6.750;2023-04-21T02:03:39;8.50;99.90
60293;DHT22;52402;52.670;6.750;2023-04-21T02:06:12;8.60;99.90
60293;DHT22;52402;52.670;6.750;2023-04-21T02:08:50;8.60;99.90
60293;DHT22;52402;52.670;6.750;2023-04-21T02:11:16;8.60;99.90
60293;DHT22;52402;52.670;6.750;2023-04-21T02:13:46;8.70;99.90
60293;DHT22;52402;52.670;6.750;2023-04-21T02:16:16;8.70;99.90
60293;DHT22;52402;52.670;6.750;2023-04-21T02:18:47;8.70;99.90
60293;DHT22;52402;52.670;6.750;2023-04-21T02:21:23;8.70;99.90
60293;DHT22;52402;52.670;6.750;2023-04-21T02:23:56;8.70;99.90
60293;DHT22;52402;52.670;6.750;2023-04-21T02:26:29;8.70;99.90
60293;DHT22;52402;52.670;6.750;2023-04-21T02:29:04;8.70;99.90
60293;DHT22;52402;52.670;6.750;2023-04-21T02:31:38;8.70;99.90
60293;DHT22;52402;52.670;6.750;2023-04-21T02:34:05;8.70;99.90
60293;DHT22;52402;52.670;6.750;2023-04-21T02:36:36;8.70;99.90
60293;DHT22;52402;52.670;6.750;2023-04-21T02:39:04;8.70;99.90
60293;DHT22;52402;52.670;6.750;2023-04-21T02:41:34;8.70;99.90
60293;DHT22;52402;52.670;6.750;2023-04-21T02:44:07;8.70;99.90
60293;DHT22;52402;52.670;6.750;2023-04-21T02:46:40;8.60;99.90
60293;DHT22;52402;52.670;6.750;2023-04-21T02:49:17;8.70;99.90
60293;DHT22;52402;52.670;6.750;2023-04-21T02:51:52;8.70;99.90
60293;DHT22;52402;52.670;6.750;2023-04-21T02:54:21;8.70;99.90
60293;DHT22;52402;52.670;6.750;2023-04-21T02:56:57;8.70;99.90
60293;DHT22;52402;52.670;6.750;2023-04-21T02:59:27;8.70;99.90
60293;DHT22;52402;52.670;6.750;2023-04-21T03:02:02;8.70;99.90
60293;DHT22;52402;52.670;6.750;2023-04-21T03:04:30;8.70;99.90
60293;DHT22;52402;52.670;6.750;2023-04-21T03:07:01;8.80;99.90
60293;DHT22;52402;52.670;6.750;2023-04-21T03:09:29;8.80;99.90
60293;DHT22;52402;52.670;6.750;2023-04-21T03:11:59;8.80;99.90
60293;DHT22;52402;52.670;6.750;2023-04-21T03:14:32;8.90;99.90
60293;DHT22;52402;52.670;6.750;2023-04-21T03:17:05;8.90;99.90
60293;DHT22;52402;52.670;6.750;2023-04-21T03:19:38;8.90;99.90
60293;DHT22;52402;52.670;6.750;2023-04-21T03:22:11;8.90;99.90
60293;DHT22;52402;52.670;6.750;2023-04-21T03:24:46;8.90;99.90
60293;DHT22;52402;52.670;6.750;2023-04-21T03:27:20;9.00;99.90
60293;DHT22;52402;52.670;6.750;2023-04-21T03:29:48;9.00;99.90
60293;DHT22;52402;52.670;6.750;2023-04-21T03:32:15;9.00;99.90
60293;DHT22;52402;52.670;6.750;2023-04-21T03:34:46;9.00;99.90
60293;DHT22;52402;52.670;6.750;2023-04-21T03:37:16;9.10;99.90
60293;DHT22;52402;52.670;6.750;2023-04-21T03:39:44;9.00;99.90
60293;DHT22;52402;52.670;6.750;2023-04-21T03:42:23;9.00;99.90
60293;DHT22;52402;52.670;6.750;2023-04-21T03:44:59;9.00;99.90
60293;DHT22;52402;52.670;6.750;2023-04-21T03:47:30;9.10;99.90
60293;DHT22;52402;52.670;6.750;2023-04-21T03:49:58;9.00;99.90
60293;DHT22;52402;52.670;6.750;2023-04-21T03:52:26;9.10;99.90
60293;DHT22;52402;52.670;6.750;2023-04-21T03:54:57;9.10;99.90
60293;DHT22;52402;52.670;6.750;2023-04-21T03:57:27;9.00;99.90
60293;DHT22;52402;52.670;6.750;2023-04-21T03:59:58;9.00;99.90
60293;DHT22;52402;52.670;6.750;2023-04-21T04:02:32;9.00;99.90
60293;DHT22;52402;52.670;6.750;2023-04-21T04:04:59;9.10;99.90
60293;DHT22;52402;52.670;6.750;2023-04-21T04:07:31;9.00;99.90
60293;DHT22;52402;52.670;6.750;2023-04-21T04:10:03;9.00;99.90
60293;DHT22;52402;52.670;6.750;2023-04-21T04:12:31;9.00;99.90
60293;DHT22;52402;52.670;6.750;2023-04-21T04:14:59;9.00;99.90
60293;DHT22;52402;52.670;6.750;2023-04-21T04:17:29;9.00;99.90
60293;DHT22;52402;52.670;6.750;2023-04-21T04:19:59;9.00;99.90
60293;DHT22;52402;52.670;6.750;2023-04-21T04:22:30;9.00;99.90
60293;DHT22;52402;52.670;6.750;2023-04-21T04:25:01;9.00;99.90
60293;DHT22;52402;52.670;6.750;2023-04-21T04:27:31;9.00;99.90
60293;DHT22;52402;52.670;6.750;2023-04-21T04:30:04;8.90;99.90
60293;DHT22;52402;52.670;6.750;2023-04-21T04:32:37;8.90;99.90
60293;DHT22;52402;52.670;6.750;2023-04-21T04:35:11;8.90;99.90
60293;DHT22;52402;52.670;6.750;2023-04-21T04:37:44;8.90;99.90
60293;DHT22;52402;52.670;6.750;2023-04-21T04:40:12;8.80;99.90
60293;DHT22;52402;52.670;6.750;2023-04-21T04:42:43;8.80;99.90
60293;DHT22;52402;52.670;6.750;2023-04-21T04:45:11;8.80;99.90
60293;DHT22;52402;52.670;6.750;2023-04-21T04:47:42;8.70;99.90
60293;DHT22;52402;52.670;6.750;2023-04-21T04:50:15;8.70;99.90
60293;DHT22;52402;52.670;6.750;2023-04-21T04:52:41;8.70;99.90
60293;DHT22;52402;52.670;6.750;2023-04-21T04:55:18;8.70;99.90
60293;DHT22;52402;52.670;6.750;2023-04-21T04:57:44;8.60;99.90
60293;DHT22;52402;52.670;6.750;2023-04-21T05:00:19;8.60;99.90
60293;DHT22;52402;52.670;6.750;2023-04-21T05:02:50;8.60;99.90
60293;DHT22;52402;52.670;6.750;2023-04-21T05:05:18;8.60;99.90
60293;DHT22;52402;52.670;6.750;2023-04-21T05:07:49;8.60;99.90
60293;DHT22;52402;52.670;6.750;2023-04-21T05:10:20;8.60;99.90
60293;DHT22;52402;52.670;6.750;2023-04-21T05:12:53;8.60;99.90
60293;DHT22;52402;52.670;6.750;2023-04-21T05:15:26;8.60;99.90
60293;DHT22;52402;52.670;6.750;2023-04-21T05:17:56;8.70;99.90
60293;DHT22;52402;52.670;6.750;2023-04-21T05:20:24;8.70;99.90
60293;DHT22;52402;52.670;6.750;2023-04-21T05:22:50;8.70;99.90
60293;DHT22;52402;52.670;6.750;2023-04-21T05:25:25;8.70;99.90
60293;DHT22;52402;52.670;6.750;2023-04-21T05:27:58;8.80;99.90
60293;DHT22;52402;52.670;6.750;2023-04-21T05:30:26;8.80;99.90
60293;DHT22;52402;52.670;6.750;2023-04-21T05:33:01;8.80;99.90
60293;DHT22;52402;52.670;6.750;2023-04-21T05:35:32;8.90;99.90
60293;DHT22;52402;52.670;6.750;2023-04-21T05:38:00;8.90;99.90
60293;DHT22;52402;52.670;6.750;2023-04-21T05:40:30;9.00;99.90
60293;DHT22;52402;52.670;6.750;2023-04-21T05:42:58;9.00;99.90
60293;DHT22;52402;52.670;6.750;2023-04-21T05:45:31;9.00;99.90
60293;DHT22;52402;52.670;6.750;2023-04-21T05:48:02;9.10;99.90
60293;DHT22;52402;52.670;6.750;2023-04-21T05:50:36;9.10;99.90
60293;DHT22;52402;52.670;6.750;2023-04-21T05:53:10;9.20;99.90
60293;DHT22;52402;52.670;6.750;2023-04-21T05:55:50;9.30;99.90
60293;DHT22;52402;52.670;6.750;2023-04-21T05:58:16;9.40;99.90
60293;DHT22;52402;52.670;6.750;2023-04-21T06:00:46;9.50;99.90
60293;DHT22;52402;52.670;6.750;2023-04-21T06:03:16;9.60;99.90
60293;DHT22;52402;52.670;6.750;2023-04-21T06:05:48;9.70;99.90
60293;DHT22;52402;52.670;6.750;2023-04-21T06:08:22;9.80;99.90
60293;DHT22;52402;52.670;6.750;2023-04-21T06:10:48;9.90;99.90
60293;DHT22;52402;52.670;6.750;2023-04-21T06:13:19;9.90;99.90
60293;DHT22;52402;52.670;6.750;2023-04-21T06:15:53;10.00;99.90
60293;DHT22;52402;52.670;6.750;2023-04-21T06:18:18;10.10;99.90
60293;DHT22;52402;52.670;6.750;2023-04-21T06:20:55;10.10;99.90
60293;DHT22;52402;52.670;6.750;2023-04-21T06:23:21;10.20;99.90
60293;DHT22;52402;52.670;6.750;2023-04-21T06:25:59;10.30;99.90
60293;DHT22;52402;52.670;6.750;2023-04-21T06:28:30;10.30;99.90
60293;DHT22;52402;52.670;6.750;2023-04-21T06:30:56;10.30;99.90
60293;DHT22;52402;52.670;6.750;2023-04-21T06:33:26;10.40;99.90
60293;DHT22;52402;52.670;6.750;2023-04-21T06:35:55;10.40;99.90
60293;DHT22;52402;52.670;6.750;2023-04-21T06:38:25;10.50;99.90
60293;DHT22;52402;52.670;6.750;2023-04-21T06:41:00;10.60;99.90
60293;DHT22;52402;52.670;6.750;2023-04-21T06:43:36;10.60;99.90
60293;DHT22;52402;52.670;6.750;2023-04-21T06:46:09;10.70;99.90
60293;DHT22;52402;52.670;6.750;2023-04-21T06:48:41;10.80;99.90
60293;DHT22;52402;52.670;6.750;2023-04-21T06:51:06;10.80;99.90
60293;DHT22;52402;52.670;6.750;2023-04-21T06:53:37;10.80;99.90
60293;DHT22;52402;52.670;6.750;2023-04-21T06:56:09;10.90;99.90
60293;DHT22;52402;52.670;6.750;2023-04-21T06:58:37;10.90;99.90
60293;DHT22;52402;52.670;6.750;2023-04-21T07:01:08;11.00;99.90
60293;DHT22;52402;52.670;6.750;2023-04-21T07:03:43;10.90;99.90
60293;DHT22;52402;52.670;6.750;2023-04-21T07:06:15;11.00;99.90
60293;DHT22;52402;52.670;6.750;2023-04-21T07:08:43;11.00;99.90
60293;DHT22;52402;52.670;6.750;2023-04-21T07:11:15;11.10;99.90
60293;DHT22;52402;52.670;6.750;2023-04-21T07:13:46;11.20;99.90
60293;DHT22;52402;52.670;6.750;2023-04-21T07:16:16;11.30;99.90
60293;DHT22;52402;52.670;6.750;2023-04-21T07:18:47;11.30;99.90
60293;DHT22;52402;52.670;6.750;2023-04-21T07:21:12;11.40;99.90
60293;DHT22;52402;52.670;6.750;2023-04-21T07:23:43;11.50;99.90
60293;DHT22;52402;52.670;6.750;2023-04-21T07:26:08;11.60;99.90
60293;DHT22;52402;52.670;6.750;2023-04-21T07:28:36;11.60;99.90
60293;DHT22;52402;52.670;6.750;2023-04-21T07:31:17;11.80;99.90
60293;DHT22;52402;52.670;6.750;2023-04-21T07:33:47;11.90;99.90
60293;DHT22;52402;52.670;6.750;2023-04-21T07:36:15;12.00;99.90
60293;DHT22;52402;52.670;6.750;2023-04-21T07:38:45;12.20;99.90
60293;DHT22;52402;52.670;6.750;2023-04-21T07:41:22;12.30;99.90
60293;DHT22;52402;52.670;6.750;2023-04-21T07:43:57;12.30;99.90
60293;DHT22;52402;52.670;6.750;2023-04-21T07:46:28;12.40;99.90
60293;DHT22;52402;52.670;6.750;2023-04-21T07:48:56;12.50;99.90
60293;DHT22;52402;52.670;6.750;2023-04-21T07:51:32;12.50;99.90
60293;DHT22;52402;52.670;6.750;2023-04-21T07:54:00;12.60;99.90
60293;DHT22;52402;52.670;6.750;2023-04-21T07:56:38;12.60;99.90
60293;DHT22;52402;52.670;6.750;2023-04-21T07:59:17;12.70;99.90
60293;DHT22;52402;52.670;6.750;2023-04-21T08:01:52;12.80;99.90
60293;DHT22;52402;52.670;6.750;2023-04-21T08:04:31;12.90;99.90
60293;DHT22;52402;52.670;6.750;2023-04-21T08:06:59;12.90;99.90
60293;DHT22;52402;52.670;6.750;2023-04-21T08:09:51;12.90;99.90
60293;DHT22;52402;52.670;6.750;2023-04-21T08:12:29;13.00;99.90
60293;DHT22;52402;52.670;6.750;2023-04-21T08:15:05;13.20;99.90
60293;DHT22;52402;52.670;6.750;2023-04-21T08:17:55;13.30;99.90
60293;DHT22;52402;52.670;6.750;2023-04-21T08:20:46;13.40;99.90
60293;DHT22;52402;52.670;6.750;2023-04-21T08:23:59;13.60;99.90
60293;DHT22;52402;52.670;6.750;2023-04-21T08:26:33;13.60;99.90
60293;DHT22;52402;52.670;6.750;2023-04-21T08:29:01;13.60;99.90
60293;DHT22;52402;52.670;6.750;2023-04-21T08:31:29;13.60;99.90
60293;DHT22;52402;52.670;6.750;2023-04-21T08:34:03;13.70;99.90
60293;DHT22;52402;52.670;6.750;2023-04-21T08:36:36;13.80;99.90
60293;DHT22;52402;52.670;6.750;2023-04-21T08:39:06;13.90;99.90
60293;DHT22;52402;52.670;6.750;2023-04-21T08:41:34;13.90;99.90
60293;DHT22;52402;52.670;6.750;2023-04-21T08:44:07;14.20;99.90
60293;DHT22;52402;52.670;6.750;2023-04-21T08:46:36;14.30;99.90
60293;DHT22;52402;52.670;6.750;2023-04-21T08:49:08;14.50;99.90
60293;DHT22;52402;52.670;6.750;2023-04-21T08:51:41;14.60;99.90
60293;DHT22;52402;52.670;6.750;2023-04-21T08:54:09;14.60;99.90
60293;DHT22;52402;52.670;6.750;2023-04-21T08:56:43;14.80;99.90
60293;DHT22;52402;52.670;6.750;2023-04-21T08:59:16;15.00;99.90
60293;DHT22;52402;52.670;6.750;2023-04-21T09:02:11;15.20;99.90
60293;DHT22;52402;52.670;6.750;2023-04-21T09:04:43;15.50;99.90
60293;DHT22;52402;52.670;6.750;2023-04-21T09:07:09;15.50;99.90
60293;DHT22;52402;52.670;6.750;2023-04-21T09:09:54;15.50;99.90
60293;DHT22;52402;52.670;6.750;2023-04-21T09:12:23;15.60;99.90
60293;DHT22;52402;52.670;6.750;2023-04-21T09:14:51;15.60;99.90
60293;DHT22;52402;52.670;6.750;2023-04-21T09:17:27;15.70;99.90
60293;DHT22;52402;52.670;6.750;2023-04-21T09:19:58;15.70;99.90
60293;DHT22;52402;52.670;6.750;2023-04-21T09:22:40;15.60;99.90
60293;DHT22;52402;52.670;6.750;2023-04-21T09:25:18;15.50;99.90
60293;DHT22;52402;52.670;6.750;2023-04-21T09:27:48;15.40;99.90
60293;DHT22;52402;52.670;6.750;2023-04-21T09:30:25;15.30;99.90
60293;DHT22;52402;52.670;6.750;2023-04-21T09:32:57;15.40;99.90
60293;DHT22;52402;52.670;6.750;2023-04-21T09:35:29;15.30;99.90
60293;DHT22;52402;52.670;6.750;2023-04-21T09:37:59;15.30;99.90
60293;DHT22;52402;52.670;6.750;2023-04-21T09:40:33;15.30;99.90
60293;DHT22;52402;52.670;6.750;2023-04-21T09:43:24;15.40;99.90
60293;DHT22;52402;52.670;6.750;2023-04-21T09:45:57;15.40;99.90
60293;DHT22;52402;52.670;6.750;2023-04-21T09:48:29;15.70;99.90
60293;DHT22;52402;52.670;6.750;2023-04-21T09:51:04;16.10;99.90
60293;DHT22;52402;52.670;6.750;2023-04-21T09:53:32;16.30;99.90
60293;DHT22;52402;52.670;6.750;2023-04-21T10:03:26;16.60;99.90
60293;DHT22;52402;52.670;6.750;2023-04-21T10:05:56;16.70;99.90
60293;DHT22;52402;52.670;6.750;2023-04-21T10:08:28;16.90;99.90
60293;DHT22;52402;52.670;6.750;2023-04-21T10:11:01;16.90;99.90
60293;DHT22;52402;52.670;6.750;2023-04-21T10:13:37;16.80;99.90
60293;DHT22;52402;52.670;6.750;2023-04-21T10:16:18;16.70;99.90
60293;DHT22;52402;52.670;6.750;2023-04-21T10:18:52;16.60;99.90
60293;DHT22;52402;52.670;6.750;2023-04-21T10:24:15;16.40;99.90
60293;DHT22;52402;52.670;6.750;2023-04-21T10:26:49;16.30;99.90
60293;DHT22;52402;52.670;6.750;2023-04-21T10:29:30;16.20;99.90
60293;DHT22;52402;52.670;6.750;2023-04-21T10:32:02;16.20;99.90
60293;DHT22;52402;52.670;6.750;2023-04-21T10:34:44;16.20;99.90
60293;DHT22;52402;52.670;6.750;2023-04-21T10:37:16;16.20;99.90
60293;DHT22;52402;52.670;6.750;2023-04-21T10:39:53;16.20;99.90
60293;DHT22;52402;52.670;6.750;2023-04-21T10:42:32;16.30;99.90
60293;DHT22;52402;52.670;6.750;2023-04-21T10:45:10;16.40;99.90
60293;DHT22;52402;52.670;6.750;2023-04-21T10:47:50;16.60;99.90
60293;DHT22;52402;52.670;6.750;2023-04-21T10:50:22;16.70;99.90
60293;DHT22;52402;52.670;6.750;2023-04-21T10:53:11;16.80;99.90
60293;DHT22;52402;52.670;6.750;2023-04-21T10:55:47;17.00;99.90
60293;DHT22;52402;52.670;6.750;2023-04-21T11:01:15;17.20;99.90
60293;DHT22;52402;52.670;6.750;2023-04-21T11:03:50;17.20;99.90
60293;DHT22;52402;52.670;6.750;2023-04-21T11:06:18;17.30;99.90
60293;DHT22;52402;52.670;6.750;2023-04-21T11:09:03;17.50;99.90
60293;DHT22;52402;52.670;6.750;2023-04-21T11:11:31;17.70;99.90
60293;DHT22;52402;52.670;6.750;2023-04-21T11:16:47;17.60;99.90
60293;DHT22;52402;52.670;6.750;2023-04-21T11:19:22;17.60;99.90
60293;DHT22;52402;52.670;6.750;2023-04-21T11:29:13;18.60;99.90
60293;DHT22;52402;52.670;6.750;2023-04-21T11:31:44;18.70;99.90
60293;DHT22;52402;52.670;6.750;2023-04-21T11:34:13;18.50;99.90
60293;DHT22;52402;52.670;6.750;2023-04-21T11:36:47;18.40;99.90
60293;DHT22;52402;52.670;6.750;2023-04-21T11:39:16;18.20;99.90
60293;DHT22;52402;52.670;6.750;2023-04-21T11:41:46;18.10;99.90
60293;DHT22;52402;52.670;6.750;2023-04-21T11:44:28;18.00;99.90
60293;DHT22;52402;52.670;6.750;2023-04-21T11:47:10;17.80;99.90
60293;DHT22;52402;52.670;6.750;2023-04-21T11:49:50;17.80;99.90
60293;DHT22;52402;52.670;6.750;2023-04-21T11:52:30;17.80;99.90
60293;DHT22;52402;52.670;6.750;2023-04-21T11:55:10;17.90;99.90
60293;DHT22;52402;52.670;6.750;2023-04-21T11:57:42;18.00;99.90
60293;DHT22;52402;52.670;6.750;2023-04-21T12:00:16;18.10;99.90
60293;DHT22;52402;52.670;6.750;2023-04-21T12:02:58;18.10;99.90
60293;DHT22;52402;52.670;6.750;2023-04-21T12:05:35;18.00;99.90
60293;DHT22;52402;52.670;6.750;2023-04-21T12:08:11;17.90;99.90
60293;DHT22;52402;52.670;6.750;2023-04-21T12:10:46;17.60;99.90
60293;DHT22;52402;52.670;6.750;2023-04-21T12:13:27;17.50;99.90
60293;DHT22;52402;52.670;6.750;2023-04-21T12:16:04;17.50;99.90
60293;DHT22;52402;52.670;6.750;2023-04-21T12:18:38;17.50;99.90
60293;DHT22;52402;52.670;6.750;2023-04-21T12:21:06;17.50;99.90
60293;DHT22;52402;52.670;6.750;2023-04-21T12:23:42;17.50;99.90
60293;DHT22;52402;52.670;6.750;2023-04-21T12:26:14;17.80;99.90
60293;DHT22;52402;52.670;6.750;2023-04-21T12:28:47;18.40;99.90
60293;DHT22;52402;52.670;6.750;2023-04-21T12:31:17;18.90;99.90
60293;DHT22;52402;52.670;6.750;2023-04-21T12:33:50;19.30;99.90
60293;DHT22;52402;52.670;6.750;2023-04-21T12:45:18;19.60;99.90
60293;DHT22;52402;52.670;6.750;2023-04-21T12:47:48;19.50;99.90
60293;DHT22;52402;52.670;6.750;2023-04-21T12:50:26;19.40;99.90
60293;DHT22;52402;52.670;6.750;2023-04-21T12:53:01;19.50;99.90
60293;DHT22;52402;52.670;6.750;2023-04-21T12:55:48;19.60;99.90
60293;DHT22;52402;52.670;6.750;2023-04-21T12:58:34;19.50;99.90
60293;DHT22;52402;52.670;6.750;2023-04-21T13:01:18;19.40;99.90
60293;DHT22;52402;52.670;6.750;2023-04-21T13:04:16;19.40;99.90
60293;DHT22;52402;52.670;6.750;2023-04-21T13:09:39;19.20;99.90
60293;DHT22;52402;52.670;6.750;2023-04-21T13:12:10;19.20;99.90
60293;DHT22;52402;52.670;6.750;2023-04-21T13:14:52;19.20;99.90
60293;DHT22;52402;52.670;6.750;2023-04-21T13:17:48;19.20;99.90
60293;DHT22;52402;52.670;6.750;2023-04-21T13:20:33;19.00;99.90
60293;DHT22;52402;52.670;6.750;2023-04-21T13:23:25;18.90;99.90
60293;DHT22;52402;52.670;6.750;2023-04-21T13:26:13;18.80;99.90
60293;DHT22;52402;52.670;6.750;2023-04-21T13:29:03;18.80;99.90
60293;DHT22;52402;52.670;6.750;2023-04-21T13:35:11;18.60;99.90
60293;DHT22;52402;52.670;6.750;2023-04-21T13:37:42;18.50;99.90
60293;DHT22;52402;52.670;6.750;2023-04-21T13:40:19;19.00;99.90
60293;DHT22;52402;52.670;6.750;2023-04-21T13:42:47;19.50;99.90
60293;DHT22;52402;52.670;6.750;2023-04-21T13:45:36;19.70;99.90
60293;DHT22;52402;52.670;6.750;2023-04-21T13:48:14;19.70;99.90
60293;DHT22;52402;52.670;6.750;2023-04-21T13:50:47;19.60;99.90
60293;DHT22;52402;52.670;6.750;2023-04-21T13:56:23;19.90;99.90
60293;DHT22;52402;52.670;6.750;2023-04-21T13:59:05;20.30;99.90
60293;DHT22;52402;52.670;6.750;2023-04-21T14:04:39;20.30;99.90
60293;DHT22;52402;52.670;6.750;2023-04-21T14:07:15;20.10;99.90
60293;DHT22;52402;52.670;6.750;2023-04-21T14:10:13;20.10;99.90
60293;DHT22;52402;52.670;6.750;2023-04-21T14:12:41;20.10;99.50
60293;DHT22;52402;52.670;6.750;2023-04-21T14:15:33;20.10;99.90
60293;DHT22;52402;52.670;6.750;2023-04-21T14:18:10;20.10;99.90
60293;DHT22;52402;52.670;6.750;2023-04-21T14:20:44;20.00;99.70
60293;DHT22;52402;52.670;6.750;2023-04-21T14:23:26;19.80;99.50
60293;DHT22;52402;52.670;6.750;2023-04-21T14:26:02;19.80;99.40
60293;DHT22;52402;52.670;6.750;2023-04-21T14:28:33;19.60;99.80
60293;DHT22;52402;52.670;6.750;2023-04-21T14:31:19;19.50;99.90
60293;DHT22;52402;52.670;6.750;2023-04-21T14:33:50;19.50;99.90
60293;DHT22;52402;52.670;6.750;2023-04-21T14:36:24;19.50;99.90
60293;DHT22;52402;52.670;6.750;2023-04-21T14:39:15;19.50;99.90
60293;DHT22;52402;52.670;6.750;2023-04-21T14:42:05;19.40;99.50
60293;DHT22;52402;52.670;6.750;2023-04-21T14:45:14;19.30;99.40
60293;DHT22;52402;52.670;6.750;2023-04-21T14:47:51;19.30;98.80
60293;DHT22;52402;52.670;6.750;2023-04-21T14:53:32;19.30;99.30
60293;DHT22;52402;52.670;6.750;2023-04-21T14:56:19;19.30;98.90
60293;DHT22;52402;52.670;6.750;2023-04-21T14:58:56;19.20;99.10
60293;DHT22;52402;52.670;6.750;2023-04-21T15:01:42;19.20;99.50
60293;DHT22;52402;52.670;6.750;2023-04-21T15:04:32;19.20;99.60
60293;DHT22;52402;52.670;6.750;2023-04-21T15:07:25;19.20;99.90
60293;DHT22;52402;52.670;6.750;2023-04-21T15:10:00;19.10;99.30
60293;DHT22;52402;52.670;6.750;2023-04-21T15:18:37;19.00;99.80
60293;DHT22;52402;52.670;6.750;2023-04-21T15:21:29;19.00;99.40
60293;DHT22;52402;52.670;6.750;2023-04-21T15:24:03;19.00;99.60
60293;DHT22;52402;52.670;6.750;2023-04-21T15:29:54;18.90;99.10
60293;DHT22;52402;52.670;6.750;2023-04-21T15:32:24;18.80;98.90
60293;DHT22;52402;52.670;6.750;2023-04-21T15:35:00;18.80;98.50
60293;DHT22;52402;52.670;6.750;2023-04-21T15:37:42;18.70;98.20
60293;DHT22;52402;52.670;6.750;2023-04-21T15:40:24;18.70;98.20
60293;DHT22;52402;52.670;6.750;2023-04-21T15:43:06;18.70;98.10
60293;DHT22;52402;52.670;6.750;2023-04-21T15:45:46;18.90;98.00
60293;DHT22;52402;52.670;6.750;2023-04-21T15:48:25;19.20;98.00
60293;DHT22;52402;52.670;6.750;2023-04-21T15:51:02;19.50;97.00
60293;DHT22;52402;52.670;6.750;2023-04-21T15:53:39;19.80;97.30
60293;DHT22;52402;52.670;6.750;2023-04-21T15:56:22;20.00;97.10
60293;DHT22;52402;52.670;6.750;2023-04-21T15:59:11;20.10;97.00
60293;DHT22;52402;52.670;6.750;2023-04-21T16:01:57;20.00;96.90
60293;DHT22;52402;52.670;6.750;2023-04-21T16:04:37;19.70;97.10
60293;DHT22;52402;52.670;6.750;2023-04-21T16:07:14;19.50;96.50
60293;DHT22;52402;52.670;6.750;2023-04-21T16:10:24;19.30;97.40
60293;DHT22;52402;52.670;6.750;2023-04-21T16:13:09;19.10;97.30
60293;DHT22;52402;52.670;6.750;2023-04-21T16:18:52;18.90;97.40
60293;DHT22;52402;52.670;6.750;2023-04-21T16:22:00;18.80;96.90
60293;DHT22;52402;52.670;6.750;2023-04-21T16:24:37;18.70;97.30
60293;DHT22;52402;52.670;6.750;2023-04-21T16:27:43;18.60;97.40
60293;DHT22;52402;52.670;6.750;2023-04-21T16:30:32;18.40;97.40
60293;DHT22;52402;52.670;6.750;2023-04-21T16:33:06;18.40;98.20
60293;DHT22;52402;52.670;6.750;2023-04-21T16:35:49;18.30;98.10
60293;DHT22;52402;52.670;6.750;2023-04-21T16:38:30;18.30;98.30
60293;DHT22;52402;52.670;6.750;2023-04-21T16:41:09;18.20;98.40
60293;DHT22;52402;52.670;6.750;2023-04-21T16:43:42;18.10;98.20
60293;DHT22;52402;52.670;6.750;2023-04-21T16:46:15;18.00;98.30
60293;DHT22;52402;52.670;6.750;2023-04-21T16:48:54;17.90;99.00
60293;DHT22;52402;52.670;6.750;2023-04-21T16:51:27;17.80;99.60
60293;DHT22;52402;52.670;6.750;2023-04-21T16:53:57;17.60;99.90
60293;DHT22;52402;52.670;6.750;2023-04-21T16:56:42;17.50;99.90
60293;DHT22;52402;52.670;6.750;2023-04-21T16:59:27;17.10;99.90
60293;DHT22;52402;52.670;6.750;2023-04-21T17:01:58;16.80;99.90
60293;DHT22;52402;52.670;6.750;2023-04-21T17:04:31;16.50;99.90
60293;DHT22;52402;52.670;6.750;2023-04-21T17:07:26;16.30;99.90
60293;DHT22;52402;52.670;6.750;2023-04-21T17:12:55;16.10;99.90
60293;DHT22;52402;52.670;6.750;2023-04-21T17:15:46;16.00;99.90
60293;DHT22;52402;52.670;6.750;2023-04-21T17:18:33;16.00;99.90
60293;DHT22;52402;52.670;6.750;2023-04-21T17:21:06;15.90;99.90
60293;DHT22;52402;52.670;6.750;2023-04-21T17:23:39;15.90;99.90
60293;DHT22;52402;52.670;6.750;2023-04-21T17:26:10;15.90;99.90